Aviation Digital Data Service (ADDS)

Output produced by METARs form (0847 UTC 23 May 2015)
found at http://aviationweather.gov/adds/metars/
 
KLWB 230539Z 2306/2406 32004KT P6SM SCT060 SCT250 
     TEMPO 2309/2312 4SM BR 
     FM231400 05005KT P6SM SCT050 SCT250 
     FM231600 11006KT P6SM SCT060 SCT250 
     TEMPO 2317/2321 BKN060 
     FM240000 VRB02KT P6SM SKC